Time;durP1;ratioP1;P1;durP2;ratioP2;P2;SDS_P1;SDS_P2;PMS_P1;PMS_P2;Temp;Humidity;BMP_temperature;BMP_pressure;BME280_temperature;BME280_humidity;BME280_pressure;Samples;Min_cycle;Max_cycle;Signal;HPM_P1;HPM_P2
2021/01/29 00:01:15;;;;;;;20.13;10.32;;;;;;;-1.79;99.64;99172.38;4934356;29;20051;-64
2021/01/29 00:04:01;;;;;;;19.52;10.32;;;;;;;-1.77;100.00;99173.13;4933769;29;20058;-63
2021/01/29 00:06:46;;;;;;;18.40;9.30;;;;;;;-1.78;100.00;99160.38;4933754;29;20066;-63
2021/01/29 00:09:30;;;;;;;17.27;9.38;;;;;;;-1.79;100.00;99171.53;4933694;29;20087;-63
2021/01/29 00:12:16;;;;;;;24.67;10.95;;;;;;;-1.81;100.00;99166.44;4934349;29;20549;-63
2021/01/29 00:15:01;;;;;;;17.25;9.05;;;;;;;-1.82;100.00;99164.78;4934112;29;20075;-65
2021/01/29 00:17:47;;;;;;;18.38;9.82;;;;;;;-1.85;100.00;99160.63;4932992;29;20062;-66
2021/01/29 00:20:33;;;;;;;16.95;8.93;;;;;;;-1.84;100.00;99156.34;4933740;29;20059;-65
2021/01/29 00:23:19;;;;;;;21.75;9.85;;;;;;;-1.84;99.85;99161.47;4933983;29;20165;-65
2021/01/29 00:26:04;;;;;;;17.50;9.52;;;;;;;-1.86;100.00;99148.69;4933277;29;20054;-64
2021/01/29 00:28:49;;;;;;;17.42;9.70;;;;;;;-1.86;100.00;99156.38;4933994;29;20050;-64
2021/01/29 00:31:35;;;;;;;18.77;10.32;;;;;;;-1.88;100.00;99152.22;4933742;29;20182;-65
2021/01/29 00:34:21;;;;;;;17.85;9.57;;;;;;;-1.91;100.00;99154.88;4933250;29;20059;-64
2021/01/29 00:37:06;;;;;;;18.85;9.45;;;;;;;-1.91;100.00;99152.31;4932815;29;20058;-64
2021/01/29 00:39:51;;;;;;;18.63;8.55;;;;;;;-1.94;100.00;99140.50;4933202;29;20074;-63
2021/01/29 00:42:37;;;;;;;17.35;8.85;;;;;;;-1.93;100.00;99143.88;4933324;29;20062;-63
2021/01/29 00:45:25;;;;;;;15.93;9.10;;;;;;;-1.95;100.00;99143.91;4933321;29;20051;-63
2021/01/29 00:48:10;;;;;;;16.52;9.68;;;;;;;-1.97;100.00;99138.03;4932227;29;20051;-65
2021/01/29 00:50:55;;;;;;;18.10;9.50;;;;;;;-1.97;99.93;99130.34;4933249;29;20505;-64
2021/01/29 00:53:40;;;;;;;18.25;9.60;;;;;;;-1.95;100.00;99135.41;4933178;29;20121;-64
2021/01/29 00:56:34;;;;;;;15.75;8.65;;;;;;;-1.96;99.70;99133.75;4933270;29;20059;-64
2021/01/29 00:59:29;;;;;;;18.23;8.95;;;;;;;-1.99;100.00;99133.84;4929716;29;20657;-65
2021/01/29 01:02:36;;;;;;;15.27;8.18;;;;;;;-2.01;99.86;99128.78;4930756;29;20062;-63
2021/01/29 01:05:25;;;;;;;14.65;7.57;;;;;;;-2.01;100.00;99122.84;4930509;29;20059;-64
2021/01/29 01:08:11;;;;;;;21.08;10.15;;;;;;;-1.99;100.00;99121.91;4933126;29;20167;-64
2021/01/29 01:11:07;;;;;;;16.73;9.55;;;;;;;-2.02;100.00;99122.00;4933663;29;20563;-64
2021/01/29 01:14:29;;;;;;;15.27;7.93;;;;;;;-2.03;100.00;99117.78;4924185;29;20186;-64
2021/01/29 01:17:33;;;;;;;20.50;9.85;;;;;;;-2.09;100.00;99116.31;4932682;29;20817;-64
2021/01/29 01:20:27;;;;;;;13.32;7.72;;;;;;;-2.08;99.95;99124.81;4932243;29;20050;-63
2021/01/29 01:23:13;;;;;;;16.45;8.60;;;;;;;-2.10;100.00;99124.03;4932405;29;20059;-64
2021/01/29 01:26:02;;;;;;;17.13;8.70;;;;;;;-2.10;100.00;99116.34;4931936;29;20058;-64
2021/01/29 01:29:25;;;;;;;16.67;9.00;;;;;;;-2.12;100.00;99113.84;4927489;29;20059;-64
2021/01/29 01:32:11;;;;;;;15.40;8.63;;;;;;;-2.13;100.00;99124.16;4933252;29;20058;-63
2021/01/29 01:35:27;;;;;;;14.07;8.48;;;;;;;-2.12;100.00;99125.81;4931779;29;20101;-63
2021/01/29 01:38:13;;;;;;;14.82;8.02;;;;;;;-2.14;100.00;99130.97;4932534;29;20051;-64
2021/01/29 01:41:07;;;;;;;15.48;8.80;;;;;;;-2.15;100.00;99133.63;4932833;29;20070;-63
2021/01/29 01:44:29;;;;;;;14.60;8.38;;;;;;;-2.14;100.00;99127.59;4931683;29;20161;-64
2021/01/29 01:47:36;;;;;;;14.15;7.47;;;;;;;-2.15;100.00;99129.31;4929452;29;20059;-63
2021/01/29 01:50:50;;;;;;;15.57;8.18;;;;;;;-2.16;100.00;99129.38;4930598;28;20082;-64
2021/01/29 01:53:46;;;;;;;16.48;8.63;;;;;;;-2.14;100.00;99133.53;4931502;29;20121;-63
2021/01/29 01:56:44;;;;;;;13.63;7.38;;;;;;;-2.16;100.00;99127.66;4931546;29;20126;-65
2021/01/29 01:59:52;;;;;;;15.02;8.40;;;;;;;-2.13;100.00;99127.56;4932905;29;20141;-64
2021/01/29 02:03:12;;;;;;;15.98;8.20;;;;;;;-2.16;100.00;99119.97;4931479;29;20530;-64
2021/01/29 02:06:09;;;;;;;12.07;7.28;;;;;;;-2.19;100.00;99125.22;4931957;29;20324;-64
2021/01/29 02:09:05;;;;;;;15.15;8.13;;;;;;;-2.20;100.00;99113.31;4931479;29;20137;-64
2021/01/29 02:12:32;;;;;;;12.23;7.40;;;;;;;-2.21;100.00;99105.69;4932283;29;20054;-64
2021/01/29 02:15:28;;;;;;;15.82;8.27;;;;;;;-2.25;100.00;99102.41;4931013;29;20139;-64
2021/01/29 02:18:42;;;;;;;13.80;7.57;;;;;;;-2.23;100.00;99102.34;4932258;29;20059;-64
2021/01/29 02:21:48;;;;;;;16.38;7.65;;;;;;;-2.26;100.00;99097.34;4930821;29;20055;-63
2021/01/29 02:25:36;;;;;;;16.35;7.97;;;;;;;-2.27;99.66;99099.09;4931957;29;20126;-63
2021/01/29 02:28:54;;;;;;;13.45;7.78;;;;;;;-2.28;100.00;99102.50;4930991;29;20055;-64
2021/01/29 02:32:06;;;;;;;12.60;7.60;;;;;;;-2.32;99.93;99101.81;4930917;29;20058;-63
2021/01/29 02:35:03;;;;;;;14.25;7.95;;;;;;;-2.30;100.00;99103.47;4930565;29;20398;-64
2021/01/29 02:38:26;;;;;;;13.70;8.02;;;;;;;-2.34;100.00;99107.88;4930165;29;20149;-63
2021/01/29 02:41:45;;;;;;;13.60;7.50;;;;;;;-2.35;100.00;99107.03;4930038;29;20089;-63
2021/01/29 02:44:51;;;;;;;;;;;;;;;-2.40;100.00;99095.31;4929076;29;20058;-64
2021/01/29 02:48:25;;;;;;;13.98;7.68;;;;;;;-2.41;100.00;99098.78;4931429;29;19929;-64
2021/01/29 02:51:38;;;;;;;14.85;8.18;;;;;;;-2.39;99.96;99089.28;4888782;29;20075;-64
2021/01/29 02:55:07;;;;;;;13.35;7.22;;;;;;;-2.43;100.00;99083.44;4931809;29;20097;-64
2021/01/29 02:58:32;;;;;;;13.57;7.50;;;;;;;-2.43;100.00;99080.88;4937026;28;20059;-64
2021/01/29 03:01:59;;;;;;;14.40;7.65;;;;;;;-2.45;100.00;99081.84;4930567;29;20545;-63
2021/01/29 03:05:18;;;;;;;14.40;7.90;;;;;;;-2.47;100.00;99075.94;4930548;29;20553;-64
2021/01/29 03:08:30;;;;;;;13.80;7.72;;;;;;;-2.45;100.00;99080.13;4930345;29;20070;-63
2021/01/29 03:11:38;;;;;;;13.85;7.70;;;;;;;-2.50;99.71;99076.91;4930371;29;20051;-63
2021/01/29 03:14:53;;;;;;;11.93;7.30;;;;;;;-2.51;100.00;99076.97;4933268;29;20102;-64
2021/01/29 03:18:01;;;;;;;16.73;9.18;;;;;;;-2.52;100.00;99077.84;4934812;29;20533;-63
2021/01/29 03:21:14;;;;;;;10.70;6.65;;;;;;;-2.53;99.51;99077.00;4934996;29;20050;-64
2021/01/29 03:24:28;;;;;;;14.45;7.93;;;;;;;-2.53;99.92;99071.88;4935313;29;20090;-64
2021/01/29 03:27:44;;;;;;;11.48;7.03;;;;;;;-2.54;99.65;99069.41;4933843;29;20506;-63
2021/01/29 03:30:52;;;;;;;13.70;7.53;;;;;;;-2.52;99.99;99070.16;4932475;29;20521;-64
2021/01/29 03:34:04;;;;;;;13.07;8.27;;;;;;;-2.55;99.68;99062.63;4934498;29;20108;-63
2021/01/29 03:37:26;;;;;;;10.23;6.85;;;;;;;-2.59;99.99;99059.34;4917847;29;20075;-62
2021/01/29 03:40:31;;;;;;;13.32;7.10;;;;;;;-2.57;99.50;99063.50;4933892;29;20066;-63
2021/01/29 03:44:14;;;;;;;11.75;6.70;;;;;;;-2.60;99.83;99053.38;4925243;29;20062;-65
2021/01/29 03:47:46;;;;;;;12.23;6.95;;;;;;;-2.60;99.97;99052.56;4934086;29;20517;-64
2021/01/29 03:50:56;;;;;;;12.60;7.38;;;;;;;-2.61;100.00;99050.91;4934122;29;20472;-64
2021/01/29 03:54:25;;;;;;;12.13;6.90;;;;;;;-2.61;99.54;99053.47;4925708;29;20058;-64
2021/01/29 03:57:42;;;;;;;11.23;6.22;;;;;;;-2.63;99.91;99044.97;4932166;29;20502;-63
2021/01/29 04:01:11;;;;;;;9.60;5.60;;;;;;;-2.64;98.98;99038.22;4924433;29;20066;-63
2021/01/29 04:04:26;;;;;;;11.23;6.45;;;;;;;-2.66;99.99;99043.41;4933940;29;20090;-64
2021/01/29 04:07:45;;;;;;;13.15;7.43;;;;;;;-2.67;99.09;99046.81;4933828;29;20120;-64
2021/01/29 04:10:54;;;;;;;11.63;6.82;;;;;;;-2.73;98.48;99036.00;4933810;29;20070;-63
2021/01/29 04:14:09;;;;;;;9.82;6.57;;;;;;;-2.77;97.85;99034.44;4932499;29;20090;-62
2021/01/29 04:17:00;;;;;;;9.23;5.60;;;;;;;-2.79;97.79;99038.78;4932558;29;20422;-64
2021/01/29 04:19:48;;;;;;;10.45;6.32;;;;;;;-2.82;98.90;99034.59;4934097;29;20062;-64
2021/01/29 04:22:37;;;;;;;12.02;7.15;;;;;;;-2.88;98.62;99038.22;4934152;29;20166;-65
2021/01/29 04:25:27;;;;;;;13.00;7.25;;;;;;;-2.95;97.88;99025.72;4931487;28;20205;-65
2021/01/29 04:28:18;;;;;;;15.05;7.90;;;;;;;-3.00;98.18;99038.66;4933327;29;20056;-64
2021/01/29 04:31:05;;;;;;;12.98;7.30;;;;;;;-3.06;98.35;99041.44;4933782;29;20056;-63
2021/01/29 04:33:57;;;;;;;11.18;6.63;;;;;;;-3.10;97.87;99034.78;4933502;29;20506;-64
2021/01/29 04:36:46;;;;;;;10.77;6.80;;;;;;;-3.18;97.90;99032.50;4933247;29;20059;-65
2021/01/29 04:39:45;;;;;;;10.02;6.45;;;;;;;-3.21;97.38;99035.16;4933176;29;20058;-64
2021/01/29 04:42:51;;;;;;;8.68;5.50;;;;;;;-3.26;97.70;99031.94;4932821;29;20526;-63
2021/01/29 04:45:45;;;;;;;12.55;7.45;;;;;;;-3.29;98.23;99039.72;4932884;29;20109;-64
2021/01/29 04:48:46;;;;;;;11.05;7.05;;;;;;;-3.26;98.42;99038.78;4933166;29;20464;-64
2021/01/29 04:51:43;;;;;;;15.50;8.07;;;;;;;-3.26;98.45;99042.16;4931235;29;20047;-63
2021/01/29 04:54:35;;;;;;;10.55;6.63;;;;;;;-3.26;98.58;99031.94;4933273;29;20577;-65
2021/01/29 04:57:46;;;;;;;11.70;6.30;;;;;;;-3.26;98.41;99031.13;4931433;29;20094;-65
2021/01/29 05:00:48;;;;;;;10.95;6.45;;;;;;;-3.27;98.20;99025.16;4929851;29;20062;-65
2021/01/29 05:04:48;;;;;;;12.65;6.65;;;;;;;-3.27;97.95;99017.50;4930639;29;20518;-65
2021/01/29 05:08:32;;;;;;;12.23;6.93;;;;;;;-3.35;97.81;99024.59;4925357;29;20105;-63
2021/01/29 05:12:01;;;;;;;10.48;6.30;;;;;;;-3.39;97.67;99015.38;4932800;29;20067;-64
2021/01/29 05:15:03;;;;;;;10.63;6.70;;;;;;;-3.41;97.84;99022.25;4933210;29;20051;-63
2021/01/29 05:18:36;;;;;;;12.23;7.35;;;;;;;-3.43;98.03;99021.47;4930603;29;20047;-64
2021/01/29 05:21:55;;;;;;;10.10;6.13;;;;;;;-3.49;97.59;99017.41;4933282;29;20050;-63
2021/01/29 05:25:07;;;;;;;10.57;6.65;;;;;;;-3.48;98.22;99023.34;4932899;29;20078;-64
2021/01/29 05:28:17;;;;;;;12.85;7.70;;;;;;;-3.52;98.46;99019.22;4932906;29;20069;-63
2021/01/29 05:31:05;;;;;;;12.98;7.70;;;;;;;-3.52;98.51;99014.13;4932930;29;20407;-64
2021/01/29 05:33:59;;;;;;;10.90;6.57;;;;;;;-3.52;98.37;99012.41;4932896;29;20062;-65
2021/01/29 05:37:06;;;;;;;10.52;6.35;;;;;;;-3.55;98.25;99009.97;4932646;29;20055;-64
2021/01/29 05:39:54;;;;;;;11.15;6.75;;;;;;;-3.54;99.08;99015.91;4932436;29;20106;-63
2021/01/29 05:43:16;;;;;;;11.32;6.85;;;;;;;-3.61;98.45;99015.25;4932615;29;20058;-63
2021/01/29 05:46:23;;;;;;;9.90;6.78;;;;;;;-3.60;98.47;99016.97;4932022;29;20059;-63
2021/01/29 05:49:29;;;;;;;7.93;4.90;;;;;;;-3.60;98.79;99011.84;4931908;29;20062;-64
2021/01/29 05:52:35;;;;;;;10.55;6.38;;;;;;;-3.58;99.03;99011.78;4932235;29;20067;-64
2021/01/29 05:55:19;;;;;;;;;;;;;;;-3.63;99.16;99009.38;4932730;29;20059;-64
2021/01/29 05:58:47;;;;;;;10.40;6.63;;;;;;;-3.60;98.91;99009.28;4932316;29;19930;-65
2021/01/29 06:01:32;;;;;;;12.02;6.68;;;;;;;-3.63;98.85;99012.78;4932200;29;20062;-63
2021/01/29 06:04:46;;;;;;;12.07;7.32;;;;;;;-3.59;98.73;99013.50;4931569;29;20540;-64
2021/01/29 06:07:54;;;;;;;8.55;5.53;;;;;;;-3.62;99.14;99005.94;4931565;29;20062;-63
2021/01/29 06:10:57;;;;;;;8.05;5.55;;;;;;;-3.59;98.96;99003.28;4931322;29;20113;-64
2021/01/29 06:14:10;;;;;;;8.13;5.13;;;;;;;-3.58;98.92;99002.41;4932168;29;20419;-64
2021/01/29 06:17:27;;;;;;;10.77;6.13;;;;;;;-3.58;98.59;98993.91;4932290;29;20193;-63
2021/01/29 06:20:43;;;;;;;10.13;5.93;;;;;;;-3.57;98.84;98991.28;4932073;29;20058;-63
2021/01/29 06:24:03;;;;;;;9.55;6.40;;;;;;;-3.63;98.28;98989.78;4932235;29;20062;-63
2021/01/29 06:26:57;;;;;;;11.32;6.40;;;;;;;-3.59;98.56;98987.13;4931777;29;20059;-63
2021/01/29 06:30:01;;;;;;;9.55;5.75;;;;;;;-3.63;98.29;98992.34;4931352;29;20403;-64
2021/01/29 06:33:17;;;;;;;12.65;7.57;;;;;;;-3.59;99.02;98985.41;4931947;29;20186;-64
2021/01/29 06:36:27;;;;;;;9.65;5.50;;;;;;;-3.57;98.95;98983.63;4931877;29;20051;-63
2021/01/29 06:39:37;;;;;;;10.60;5.78;;;;;;;-3.54;99.40;98980.13;4931172;29;20062;-63
2021/01/29 06:42:34;;;;;;;10.10;6.28;;;;;;;-3.55;98.48;98979.31;4930601;29;20057;-64
2021/01/29 06:45:38;;;;;;;10.80;6.07;;;;;;;-3.57;98.84;98975.94;4930210;29;20062;-65
2021/01/29 06:48:30;;;;;;;;;;;;;;;-3.56;98.56;98976.78;4930446;29;20091;-63
2021/01/29 06:51:27;;;;;;;10.48;5.85;;;;;;;-3.54;99.14;98975.84;4929785;29;19930;-63
2021/01/29 06:54:19;;;;;;;9.13;5.80;;;;;;;-3.57;98.54;98972.56;4930102;29;20101;-63
2021/01/29 06:57:10;;;;;;;11.90;6.28;;;;;;;-3.56;98.24;98982.75;4928870;29;20066;-63
2021/01/29 07:00:16;;;;;;;11.63;6.32;;;;;;;-3.58;98.72;98981.13;4929983;29;20062;-63
2021/01/29 07:03:45;;;;;;;7.63;4.53;;;;;;;-3.59;98.19;98972.63;4929103;29;20063;-64
2021/01/29 07:06:33;;;;;;;10.88;6.15;;;;;;;-3.58;98.70;98971.72;4929342;29;20402;-64
2021/01/29 07:09:56;;;;;;;9.50;6.00;;;;;;;-3.62;97.70;98965.88;4929898;29;20170;-64
2021/01/29 07:12:56;;;;;;;9.50;6.40;;;;;;;-3.57;97.87;98964.91;4929528;29;20062;-63
2021/01/29 07:15:45;;;;;;;10.75;6.25;;;;;;;-3.61;98.18;98964.16;4929335;29;20055;-64
2021/01/29 07:18:46;;;;;;;8.73;5.47;;;;;;;-3.61;97.75;98953.94;4929636;29;20109;-64
2021/01/29 07:21:34;;;;;;;9.27;5.50;;;;;;;-3.64;97.95;98949.78;4928832;29;20445;-63
2021/01/29 07:24:58;;;;;;;10.70;6.18;;;;;;;-3.67;97.85;98946.50;4928430;29;20059;-63
2021/01/29 07:27:47;;;;;;;8.60;5.45;;;;;;;-3.61;97.53;98943.72;4927462;29;20529;-63
2021/01/29 07:30:42;;;;;;;9.25;5.70;;;;;;;-3.57;97.97;98952.13;4926247;29;20520;-63
2021/01/29 07:33:36;;;;;;;8.70;4.85;;;;;;;-3.55;97.38;98940.97;4928880;29;20058;-64
2021/01/29 07:36:51;;;;;;;8.18;4.80;;;;;;;-3.53;98.74;98934.06;4928845;29;20129;-63
2021/01/29 07:39:42;;;;;;;;;;;;;;;-3.55;97.71;98937.59;4929908;29;20565;-62
2021/01/29 07:42:30;;;;;;;9.73;4.63;;;;;;;-3.51;98.06;98939.13;4929241;29;19938;-64
2021/01/29 07:45:48;;;;;;;6.85;4.88;;;;;;;-3.52;97.41;98940.03;4928291;29;20221;-63
2021/01/29 07:48:57;;;;;;;8.35;5.10;;;;;;;-3.46;97.10;98938.09;4929358;29;20898;-62
2021/01/29 07:52:07;;;;;;;9.05;5.50;;;;;;;-3.48;97.90;98926.25;4928999;29;20063;-64
2021/01/29 07:54:53;;;;;;;7.35;4.57;;;;;;;-3.49;96.96;98924.59;4929385;29;20580;-64
2021/01/29 07:57:47;;;;;;;8.88;5.03;;;;;;;-3.44;97.49;98931.19;4929418;29;20058;-64
2021/01/29 08:00:51;;;;;;;7.65;4.97;;;;;;;-3.38;97.54;98928.41;4929731;29;20145;-65
2021/01/29 08:03:48;;;;;;;7.13;4.75;;;;;;;-3.39;97.20;98924.19;4932829;29;20801;-64
2021/01/29 08:06:58;;;;;;;8.25;5.35;;;;;;;-3.36;97.25;98913.88;4932414;29;20403;-63
2021/01/29 08:09:56;;;;;;;7.00;4.80;;;;;;;-3.31;97.89;98920.53;4932721;29;20525;-64
2021/01/29 08:13:01;;;;;;;6.45;4.10;;;;;;;-3.32;96.66;98916.28;4932684;29;20052;-64
2021/01/29 08:15:49;;;;;;;7.78;4.97;;;;;;;-3.26;96.26;98908.41;4932244;29;20509;-63
2021/01/29 08:19:02;;;;;;;7.45;4.93;;;;;;;-3.24;95.71;98898.94;4931809;29;20589;-63
2021/01/29 08:22:10;;;;;;;7.53;4.78;;;;;;;-3.20;96.07;98900.50;4932253;29;20153;-63
2021/01/29 08:24:58;;;;;;;7.25;4.60;;;;;;;-3.32;95.33;98896.69;4930883;29;20054;-63
2021/01/29 08:28:02;;;;;;;6.45;4.35;;;;;;;-3.26;95.17;98891.34;4932037;29;20569;-63
2021/01/29 08:31:25;;;;;;;6.78;4.45;;;;;;;-3.20;95.53;98885.16;4932388;29;20522;-63
2021/01/29 08:35:01;;;;;;;6.90;4.65;;;;;;;-3.22;95.52;98874.19;4931512;29;20148;-63
2021/01/29 08:37:49;;;;;;;8.20;4.72;;;;;;;-3.18;95.37;98876.56;4929018;29;20057;-64
2021/01/29 08:40:52;;;;;;;6.80;4.60;;;;;;;-3.27;94.80;98884.56;4929515;29;20078;-63
2021/01/29 08:44:12;;;;;;;6.20;3.85;;;;;;;-3.17;94.86;98878.22;4929686;29;20462;-64
2021/01/29 08:47:35;;;;;;;7.32;4.50;;;;;;;-3.32;94.06;98883.06;4930754;29;20063;-63
2021/01/29 08:50:26;;;;;;;6.05;4.20;;;;;;;-3.42;94.83;98885.13;4932264;29;20073;-64
2021/01/29 08:53:50;;;;;;;5.82;3.67;;;;;;;-3.31;94.63;98872.78;4931940;29;20062;-64
2021/01/29 08:56:50;;;;;;;7.43;4.75;;;;;;;-3.37;94.49;98878.97;4931278;29;20055;-62
2021/01/29 08:59:38;;;;;;;8.05;4.30;;;;;;;-3.29;95.43;98877.84;4932111;29;20113;-63
2021/01/29 09:02:48;;;;;;;9.43;5.65;;;;;;;-3.26;94.85;98867.50;4931663;29;20054;-63
2021/01/29 09:05:36;;;;;;;5.70;3.90;;;;;;;-3.27;94.32;98861.56;4931344;29;20070;-64
2021/01/29 09:08:22;;;;;;;9.88;5.28;;;;;;;-3.26;94.72;98864.94;4931712;29;20063;-63
2021/01/29 09:11:14;;;;;;;13.68;7.05;;;;;;;-3.22;94.90;98859.66;4930244;29;20510;-63
2021/01/29 09:14:05;;;;;;;6.22;4.35;;;;;;;-3.27;95.03;98864.13;4931803;29;20588;-64
2021/01/29 09:17:03;;;;;;;6.90;4.47;;;;;;;-3.18;94.67;98858.66;4931621;29;20055;-63
2021/01/29 09:20:02;;;;;;;7.47;4.22;;;;;;;-3.29;93.59;98849.72;4931064;29;20058;-63
2021/01/29 09:23:00;;;;;;;7.30;4.68;;;;;;;-3.21;93.98;98853.66;4931579;29;20062;-63
2021/01/29 09:25:57;;;;;;;6.15;4.40;;;;;;;-3.14;94.03;98851.69;4931409;29;20078;-63
2021/01/29 09:28:45;;;;;;;7.15;4.43;;;;;;;-3.11;93.75;98844.72;4929668;29;20054;-64
2021/01/29 09:31:35;;;;;;;6.28;4.13;;;;;;;-3.15;93.73;98838.06;4930916;29;20178;-63
2021/01/29 09:34:33;;;;;;;5.90;3.90;;;;;;;-3.12;93.42;98832.84;4931655;29;20502;-64
2021/01/29 09:37:25;;;;;;;5.18;3.58;;;;;;;-3.09;94.32;98831.88;4930039;29;20077;-63
2021/01/29 09:40:24;;;;;;;5.25;3.50;;;;;;;-3.09;93.44;98821.66;4929713;29;20055;-64
2021/01/29 09:43:36;;;;;;;5.72;3.72;;;;;;;-3.05;93.21;98827.47;4928526;29;20069;-63
2021/01/29 09:46:28;;;;;;;7.30;4.00;;;;;;;-3.06;94.06;98818.16;4930738;29;20054;-64
2021/01/29 09:49:36;;;;;;;5.88;3.88;;;;;;;-3.13;93.00;98820.13;4930989;29;20046;-64
2021/01/29 09:52:34;;;;;;;5.30;3.58;;;;;;;-3.03;92.97;98825.72;4931008;29;20059;-64
2021/01/29 09:55:49;;;;;;;7.35;4.75;;;;;;;-3.04;93.49;98824.03;4929282;29;20051;-63
2021/01/29 09:58:53;;;;;;;;;;;;;;;-3.03;93.08;98818.03;4924358;29;20133;-63
2021/01/29 10:01:42;;;;;;;6.72;4.25;;;;;;;-3.05;93.36;98824.94;4930677;29;19930;-64
2021/01/29 10:04:52;;;;;;;6.80;3.92;;;;;;;-3.10;93.80;98825.94;4931088;29;20415;-63
2021/01/29 10:07:44;;;;;;;5.35;3.55;;;;;;;-3.00;94.40;98826.41;4930636;29;20063;-64
2021/01/29 10:10:59;;;;;;;7.07;4.70;;;;;;;-3.07;93.65;98817.31;4930223;29;20050;-63
2021/01/29 10:14:13;;;;;;;5.80;3.50;;;;;;;-3.15;93.28;98812.50;4931294;29;20058;-63
2021/01/29 10:17:21;;;;;;;5.45;3.85;;;;;;;-3.12;93.26;98819.25;4930385;29;20129;-64
2021/01/29 10:20:18;;;;;;;6.53;3.83;;;;;;;-3.13;94.73;98812.47;4930134;29;20055;-63
2021/01/29 10:23:30;;;;;;;5.95;3.42;;;;;;;-3.14;94.09;98806.50;4928657;29;20081;-63
2021/01/29 10:26:32;;;;;;;4.88;3.17;;;;;;;-3.18;94.47;98804.13;4928581;29;20054;-65
2021/01/29 10:29:20;;;;;;;5.57;3.33;;;;;;;-3.12;95.04;98794.50;4928574;29;20058;-63
2021/01/29 10:32:20;;;;;;;6.05;3.65;;;;;;;-3.14;94.15;98795.44;4926440;29;20054;-63
2021/01/29 10:35:21;;;;;;;5.28;3.80;;;;;;;-3.09;95.31;98788.41;4926343;29;20082;-66
2021/01/29 10:38:44;;;;;;;6.65;4.45;;;;;;;-3.10;94.35;98782.47;4926818;29;20050;-63
2021/01/29 10:41:47;;;;;;;7.38;4.20;;;;;;;-3.06;94.79;98785.75;4928502;29;20062;-64
2021/01/29 10:44:35;;;;;;;6.50;3.72;;;;;;;-3.00;94.33;98782.09;4927378;29;20055;-64
2021/01/29 10:47:46;;;;;;;5.78;3.92;;;;;;;-3.07;94.48;98776.41;4926710;29;20150;-64
2021/01/29 10:50:47;;;;;;;5.55;3.47;;;;;;;-3.08;94.10;98773.94;4925049;29;20134;-64
2021/01/29 10:53:35;;;;;;;6.57;4.18;;;;;;;-3.20;94.08;98770.13;4926484;29;20067;-63
2021/01/29 10:56:26;;;;;;;7.03;4.30;;;;;;;-3.16;95.12;98764.00;4925111;29;20058;-63
2021/01/29 10:59:27;;;;;;;5.38;3.30;;;;;;;-3.22;94.43;98765.09;4925058;29;20059;-64
2021/01/29 11:02:20;;;;;;;5.95;4.00;;;;;;;-3.21;95.04;98764.19;4927275;29;20134;-63
2021/01/29 11:05:11;;;;;;;6.27;3.90;;;;;;;-3.25;95.29;98759.25;4927145;29;20059;-65
2021/01/29 11:08:14;;;;;;;6.40;3.92;;;;;;;-3.26;94.65;98753.31;4926763;29;20051;-64
2021/01/29 11:11:24;;;;;;;5.65;3.55;;;;;;;-3.32;94.68;98740.78;4927880;29;20059;-63
2021/01/29 11:14:35;;;;;;;6.32;4.10;;;;;;;-3.31;94.91;98737.34;4928342;29;20093;-64
2021/01/29 11:17:29;;;;;;;6.20;3.97;;;;;;;-3.34;96.11;98734.88;4928215;29;20173;-64
2021/01/29 11:20:20;;;;;;;5.43;3.53;;;;;;;-3.30;95.50;98733.03;4927708;29;20094;-64
2021/01/29 11:23:17;;;;;;;6.38;3.80;;;;;;;-3.28;95.95;98724.41;4927890;29;20054;-64
2021/01/29 11:26:09;;;;;;;6.03;3.95;;;;;;;-3.26;95.49;98730.31;4928016;29;20085;-64
2021/01/29 11:29:31;;;;;;;5.97;3.45;;;;;;;-3.27;95.19;98715.03;4928518;29;20098;-63
2021/01/29 11:32:23;;;;;;;6.82;4.25;;;;;;;-3.27;95.48;98715.88;4928885;29;20055;-63
2021/01/29 11:35:40;;;;;;;6.35;4.05;;;;;;;-3.28;94.99;98710.81;4930117;29;20190;-66
2021/01/29 11:38:42;;;;;;;6.20;3.85;;;;;;;-3.31;95.88;98708.38;4932721;29;20082;-63
2021/01/29 11:41:50;;;;;;;6.00;3.70;;;;;;;-3.32;95.53;98710.13;4932786;29;20185;-63
2021/01/29 11:44:55;;;;;;;6.28;3.53;;;;;;;-3.37;94.89;98701.78;4932246;29;20059;-65
2021/01/29 11:48:01;;;;;;;6.22;3.90;;;;;;;-3.32;95.59;98699.03;4934415;29;20700;-64
2021/01/29 11:50:57;;;;;;;7.25;3.67;;;;;;;-3.36;95.37;98694.06;4932263;29;20063;-63
2021/01/29 11:54:06;;;;;;;6.28;4.32;;;;;;;-3.45;95.74;98689.31;4933809;29;20097;-64
2021/01/29 11:57:00;;;;;;;6.20;3.85;;;;;;;-3.33;95.73;98687.16;4933271;29;20182;-63
2021/01/29 12:00:08;;;;;;;6.30;3.45;;;;;;;-3.36;95.58;98678.72;4934518;29;20198;-64
2021/01/29 12:03:25;;;;;;;6.28;3.67;;;;;;;-3.30;95.65;98672.53;4934190;29;20054;-64
2021/01/29 12:06:32;;;;;;;7.90;5.10;;;;;;;-3.29;95.68;98661.41;4934194;29;20058;-64
2021/01/29 12:09:26;;;;;;;7.28;4.18;;;;;;;-3.31;95.27;98660.66;4933812;29;20051;-64
2021/01/29 12:12:25;;;;;;;7.53;3.95;;;;;;;-3.29;95.23;98655.47;4934297;29;20491;-64
2021/01/29 12:15:14;;;;;;;7.55;4.65;;;;;;;-3.31;95.50;98645.31;4933483;29;20584;-64
2021/01/29 12:18:06;;;;;;;7.68;4.45;;;;;;;-3.37;94.98;98645.53;4933701;29;20093;-64
2021/01/29 12:21:06;;;;;;;6.07;3.78;;;;;;;-3.42;95.81;98635.56;4934056;29;20584;-64
2021/01/29 12:24:21;;;;;;;6.85;4.20;;;;;;;-3.38;96.04;98628.56;4934034;29;20125;-64
2021/01/29 12:27:12;;;;;;;7.57;4.63;;;;;;;-3.43;95.79;98621.09;4933961;29;20058;-64
2021/01/29 12:30:07;;;;;;;7.75;4.75;;;;;;;-3.42;96.12;98624.47;4933898;29;20054;-63
2021/01/29 12:32:53;;;;;;;5.93;3.78;;;;;;;-3.42;96.19;98616.81;4930687;29;20198;-63
2021/01/29 12:35:51;;;;;;;7.05;3.97;;;;;;;-3.46;95.81;98602.53;4930946;29;20078;-64
2021/01/29 12:38:41;;;;;;;6.80;4.13;;;;;;;-3.43;96.20;98604.94;4931244;29;20051;-64
2021/01/29 12:41:55;;;;;;;7.65;4.57;;;;;;;-3.46;95.66;98603.34;4934058;29;20518;-64
2021/01/29 12:45:00;;;;;;;7.18;4.53;;;;;;;-3.44;95.73;98609.22;4932521;29;20062;-64
2021/01/29 12:47:54;;;;;;;19.95;12.32;;;;;;;-3.48;95.25;98602.56;4931922;29;20574;-64
2021/01/29 12:51:00;;;;;;;12.35;6.65;;;;;;;-3.47;95.49;98593.16;4933676;29;20194;-63
2021/01/29 12:54:06;;;;;;;9.90;6.63;;;;;;;-3.50;95.83;98598.44;4933701;29;20170;-63
2021/01/29 12:56:58;;;;;;;7.80;5.60;;;;;;;-3.56;96.38;98596.97;4932905;29;20186;-64
2021/01/29 12:59:53;;;;;;;7.85;5.28;;;;;;;-3.60;96.10;98610.75;4931933;29;20051;-63
2021/01/29 13:02:47;;;;;;;14.43;13.02;;;;;;;-3.69;96.58;98616.22;4933499;29;20054;-64
2021/01/29 13:05:51;;;;;;;8.35;6.45;;;;;;;-3.74;96.09;98611.31;4933060;29;20887;-63
2021/01/29 13:08:42;;;;;;;6.82;4.47;;;;;;;-3.73;96.42;98609.56;4930636;29;20063;-63
2021/01/29 13:11:33;;;;;;;7.28;4.82;;;;;;;-3.72;96.66;98611.22;4932495;29;20055;-63
2021/01/29 13:14:31;;;;;;;7.20;4.55;;;;;;;-3.71;96.43;98603.50;4932039;29;20536;-64
2021/01/29 13:17:39;;;;;;;7.88;5.07;;;;;;;-3.72;96.76;98591.63;4932476;29;20174;-63
2021/01/29 13:20:29;;;;;;;7.88;4.50;;;;;;;-3.79;96.40;98586.84;4932914;29;20157;-64
2021/01/29 13:23:18;;;;;;;7.75;5.00;;;;;;;-3.84;96.30;98593.88;4933352;29;20058;-63
2021/01/29 13:26:10;;;;;;;6.85;4.53;;;;;;;-3.79;96.86;98590.22;4931490;29;20525;-63
2021/01/29 13:29:17;;;;;;;7.57;4.43;;;;;;;-3.79;96.73;98585.13;4932151;29;20510;-64
2021/01/29 13:32:21;;;;;;;6.18;3.47;;;;;;;-3.80;97.24;98583.44;4931553;29;20063;-63
2021/01/29 13:35:10;;;;;;;7.40;4.50;;;;;;;-3.85;96.52;98580.25;4931610;29;20055;-65
2021/01/29 13:38:15;;;;;;;10.85;8.27;;;;;;;-3.96;96.93;98577.31;4929271;29;20051;-64
2021/01/29 13:41:23;;;;;;;7.35;4.90;;;;;;;-3.91;96.84;98578.78;4932286;29;20074;-63
2021/01/29 13:44:35;;;;;;;8.38;5.43;;;;;;;-3.92;96.79;98573.75;4932644;29;20059;-63
2021/01/29 13:47:29;;;;;;;8.40;5.93;;;;;;;-3.99;96.52;98567.19;4932526;29;20082;-65
2021/01/29 13:50:30;;;;;;;7.55;4.40;;;;;;;-3.99;97.32;98568.03;4930762;29;20137;-65
2021/01/29 13:53:33;;;;;;;9.02;5.15;;;;;;;-4.02;97.33;98563.06;4930536;29;20198;-64
2021/01/29 13:56:39;;;;;;;7.38;3.75;;;;;;;-4.03;96.96;98563.13;4930656;29;20200;-64
2021/01/29 13:59:42;;;;;;;5.75;3.42;;;;;;;-4.04;97.11;98552.06;4929992;29;20137;-65
2021/01/29 14:02:40;;;;;;;7.50;3.97;;;;;;;-4.09;96.64;98551.41;4930550;29;20125;-64
2021/01/29 14:05:27;;;;;;;6.68;4.03;;;;;;;-4.10;96.41;98537.00;4931849;29;20152;-64
2021/01/29 14:08:15;;;;;;;6.45;3.78;;;;;;;-4.13;97.06;98530.31;4932395;29;20127;-63
2021/01/29 14:11:42;;;;;;;8.25;4.43;;;;;;;-4.08;96.82;98535.25;4930280;29;20055;-64
2021/01/29 14:14:45;;;;;;;6.40;3.58;;;;;;;-4.10;97.40;98531.06;4931184;29;20046;-64